Time;durP1;ratioP1;P1;durP2;ratioP2;P2;SDS_P1;SDS_P2;PMS_P1;PMS_P2;Temp;Humidity;BMP_temperature;BMP_pressure;BME280_temperature;BME280_humidity;BME280_pressure;Samples;Min_cycle;Max_cycle;Signal;HPM_P1;HPM_P2
2021/09/11 00:02:07;;;;;;;3.49;3.24;;;;;;;16.55;92.01;99432.22;1993942;79;33906;-80
2021/09/11 00:05:10;;;;;;;3.86;3.33;;;;;;;16.57;92.06;99436.50;1994384;81;20202;-80
2021/09/11 00:08:13;;;;;;;3.50;3.20;;;;;;;16.62;92.00;99437.22;1993350;81;20198;-79
2021/09/11 00:11:16;;;;;;;3.84;3.50;;;;;;;16.69;91.59;99430.06;1993212;81;20172;-80
2021/09/11 00:14:19;;;;;;;4.55;4.07;;;;;;;16.67;91.75;99437.13;1991474;81;20192;-80
2021/09/11 00:17:22;;;;;;;3.53;3.22;;;;;;;16.70;91.68;99433.56;1993652;79;25238;-80
2021/09/11 00:20:25;;;;;;;3.95;3.63;;;;;;;16.68;91.67;99430.97;1993845;81;20256;-80
2021/09/11 00:23:27;;;;;;;5.13;3.50;;;;;;;16.69;91.33;99422.19;1991948;82;20160;-79
2021/09/11 00:26:30;;;;;;;3.78;3.35;;;;;;;16.69;91.28;99427.44;1994377;81;20218;-80
2021/09/11 00:29:37;;;;;;;3.65;3.29;;;;;;;16.63;91.45;99431.06;1992435;82;20172;-80
2021/09/11 00:32:43;;;;;;;4.74;3.28;;;;;;;16.66;91.42;99426.63;1991088;79;28435;-80
2021/09/11 00:35:46;;;;;;;3.50;3.20;;;;;;;16.70;91.16;99423.09;1990342;81;20188;-80
2021/09/11 00:38:49;;;;;;;4.39;3.39;;;;;;;16.72;91.15;99424.75;1990433;81;20196;-79
2021/09/11 00:41:52;;;;;;;3.09;2.89;;;;;;;16.75;91.09;99432.53;1993401;82;20222;-80
2021/09/11 00:44:55;;;;;;;4.68;4.04;;;;;;;16.78;91.10;99431.56;1992816;81;20180;-80
2021/09/11 00:47:57;;;;;;;3.90;3.58;;;;;;;16.79;91.13;99430.66;1992784;79;34112;-80
2021/09/11 00:51:00;;;;;;;4.75;4.35;;;;;;;16.80;91.28;99429.75;1995057;81;20177;-80
2021/09/11 00:54:04;;;;;;;4.09;3.63;;;;;;;16.86;91.04;99434.81;1994972;81;20213;-80
2021/09/11 00:57:07;;;;;;;4.18;3.55;;;;;;;16.85;91.34;99433.97;1992655;81;20173;-80
2021/09/11 01:00:11;;;;;;;4.31;3.91;;;;;;;16.88;91.41;99436.53;1993297;81;20192;-80
2021/09/11 01:03:14;;;;;;;4.81;3.69;;;;;;;16.91;91.22;99431.19;1997730;78;30345;-79
2021/09/11 01:06:17;;;;;;;4.88;3.81;;;;;;;16.92;91.37;99432.03;1999464;81;20136;-80
2021/09/11 01:09:20;;;;;;;4.57;3.97;;;;;;;16.94;91.34;99435.47;1997811;81;20203;-80
2021/09/11 01:12:22;;;;;;;3.94;3.58;;;;;;;16.94;91.37;99430.22;1999438;81;20180;-80
2021/09/11 01:15:40;;;;;;;3.96;3.66;;;;;;;16.98;91.20;99433.63;1997331;81;20372;-79
2021/09/11 01:18:44;;;;;;;5.09;3.69;;;;;;;16.97;91.43;99431.91;1998501;78;24729;-79
2021/09/11 01:21:47;;;;;;;4.86;3.89;;;;;;;16.97;91.45;99422.25;1999019;81;20642;-80
2021/09/11 01:24:57;;;;;;;7.64;3.91;;;;;;;16.97;91.27;99437.13;1996842;81;20247;-80
2021/09/11 01:27:59;;;;;;;4.65;3.94;;;;;;;16.99;91.07;99433.56;1998275;81;20206;-79
2021/09/11 01:31:03;;;;;;;3.86;3.55;;;;;;;17.02;90.95;99437.84;1996190;79;28885;-79
2021/09/11 01:34:06;;;;;;;4.14;3.84;;;;;;;17.06;90.67;99436.88;1999065;81;20200;-79
2021/09/11 01:37:09;;;;;;;3.88;3.24;;;;;;;17.07;90.73;99431.59;1998259;81;20168;-80
2021/09/11 01:40:13;;;;;;;3.81;3.51;;;;;;;17.10;90.53;99430.63;1997311;81;20175;-80
2021/09/11 01:43:16;;;;;;;4.49;4.04;;;;;;;17.12;90.24;99432.31;1997876;81;20197;-80
2021/09/11 01:46:18;;;;;;;4.11;3.81;;;;;;;17.14;90.37;99433.09;1997204;79;32532;-80
2021/09/11 01:49:21;;;;;;;4.56;4.24;;;;;;;17.15;90.54;99429.56;2000806;81;20203;-80
2021/09/11 01:52:24;;;;;;;3.88;3.58;;;;;;;17.18;90.35;99423.38;1998160;81;20175;-79
2021/09/11 01:55:26;;;;;;;4.61;4.21;;;;;;;17.20;90.07;99421.56;1997303;81;20171;-80
2021/09/11 01:58:29;;;;;;;4.04;3.78;;;;;;;17.20;90.12;99422.41;1997637;81;20176;-80
2021/09/11 02:01:32;;;;;;;5.34;3.92;;;;;;;17.22;90.17;99422.38;1995683;81;20197;-80
2021/09/11 02:04:36;;;;;;;4.14;3.84;;;;;;;17.22;90.34;99431.09;1998867;81;20257;-80
2021/09/11 02:07:39;;;;;;;4.43;4.13;;;;;;;17.25;90.07;99424.06;1997276;81;20225;-80
2021/09/11 02:10:42;;;;;;;4.28;3.67;;;;;;;17.25;89.99;99426.69;1997341;81;20216;-80
2021/09/11 02:13:44;;;;;;;3.81;3.54;;;;;;;17.21;89.96;99431.16;1998042;81;20262;-80
2021/09/11 02:16:47;;;;;;;4.19;3.89;;;;;;;17.21;90.26;99431.16;1998394;81;20279;-79
2021/09/11 02:19:50;;;;;;;4.41;4.04;;;;;;;17.19;90.37;99430.34;1997249;81;20159;-80
2021/09/11 02:22:52;;;;;;;6.29;3.59;;;;;;;17.16;90.41;99431.28;1999416;81;20205;-80
2021/09/11 02:25:55;;;;;;;4.29;3.92;;;;;;;17.19;90.31;99428.56;1999184;81;21106;-80
2021/09/11 02:28:58;;;;;;;4.01;3.71;;;;;;;17.22;90.49;99430.22;1997739;81;20231;-80
2021/09/11 02:32:07;;;;;;;4.86;3.92;;;;;;;17.24;90.50;99425.81;1996530;79;35276;-80
2021/09/11 02:35:10;;;;;;;4.22;3.86;;;;;;;17.27;90.21;99422.25;1999475;81;20213;-80
2021/09/11 02:38:14;;;;;;;4.43;4.03;;;;;;;17.28;89.82;99424.81;1999542;81;20196;-80
2021/09/11 02:41:17;;;;;;;4.57;4.18;;;;;;;17.31;89.77;99426.47;2000032;81;20197;-80
2021/09/11 02:44:19;;;;;;;4.60;4.20;;;;;;;17.28;89.84;99431.84;1997708;81;20167;-80
2021/09/11 02:47:22;;;;;;;4.29;3.89;;;;;;;17.23;89.91;99429.31;1998425;79;43967;-79
2021/09/11 02:50:25;;;;;;;5.07;4.45;;;;;;;17.21;90.04;99431.16;1999599;81;20175;-80
2021/09/11 02:53:27;;;;;;;4.50;4.19;;;;;;;17.17;90.32;99427.75;2000382;81;20172;-80
2021/09/11 02:56:30;;;;;;;5.06;4.56;;;;;;;17.18;90.53;99428.63;1998504;81;20167;-80
2021/09/11 02:59:32;;;;;;;4.31;3.96;;;;;;;17.18;90.69;99436.50;1998546;81;20717;-80
2021/09/11 03:02:36;;;;;;;4.85;4.31;;;;;;;17.18;90.65;99437.34;1998915;79;27653;-80
2021/09/11 03:05:39;;;;;;;6.63;3.97;;;;;;;17.20;90.54;99438.16;1996676;81;20168;-80
2021/09/11 03:08:42;;;;;;;6.86;4.82;;;;;;;17.21;90.59;99431.16;1999208;81;20211;-79
2021/09/11 03:11:44;;;;;;;5.13;4.55;;;;;;;17.22;90.58;99433.72;1993077;81;20610;-79
2021/09/11 03:14:47;;;;;;;5.50;3.99;;;;;;;17.25;90.59;99434.56;1994014;81;20175;-80
2021/09/11 03:17:50;;;;;;;5.82;4.51;;;;;;;17.25;90.54;99424.91;1992392;79;34453;-80
2021/09/11 03:20:52;;;;;;;4.51;4.11;;;;;;;17.28;90.54;99423.97;1998308;81;20275;-80
2021/09/11 03:23:55;;;;;;;4.74;4.35;;;;;;;17.31;90.33;99423.84;1996897;81;20164;-79
2021/09/11 03:26:57;;;;;;;5.56;5.06;;;;;;;17.31;90.39;99418.63;1997669;81;20180;-79
2021/09/11 03:30:00;;;;;;;5.38;4.50;;;;;;;17.30;90.35;99409.88;1999580;81;20180;-80
2021/09/11 03:33:03;;;;;;;4.55;4.20;;;;;;;17.26;90.49;99407.41;1997790;79;26170;-80
2021/09/11 03:36:05;;;;;;;4.90;4.46;;;;;;;17.24;90.57;99417.94;1999604;81;20742;-81
2021/09/11 03:39:08;;;;;;;4.96;4.53;;;;;;;17.25;90.59;99417.03;1997408;81;20185;-80
2021/09/11 03:42:11;;;;;;;5.38;4.85;;;;;;;17.28;90.52;99419.56;1998257;81;20199;-80
2021/09/11 03:45:14;;;;;;;4.94;4.53;;;;;;;17.28;90.54;99416.09;2002249;81;20195;-80
2021/09/11 03:48:16;;;;;;;4.85;4.35;;;;;;;17.29;90.43;99421.28;1998634;78;39920;-79
2021/09/11 03:51:19;;;;;;;6.66;4.85;;;;;;;17.30;90.41;99409.03;1998466;81;20167;-79
2021/09/11 03:54:21;;;;;;;5.06;4.66;;;;;;;17.27;90.54;99409.97;1994717;81;20312;-80
2021/09/11 03:57:24;;;;;;;5.61;4.53;;;;;;;17.27;90.48;99414.38;1997804;81;20238;-80
2021/09/11 04:00:26;;;;;;;5.51;5.03;;;;;;;17.22;90.42;99417.97;1995727;79;33576;-79
2021/09/11 04:03:31;;;;;;;6.06;5.26;;;;;;;17.19;90.53;99412.81;1997318;81;20203;-80
2021/09/11 04:06:34;;;;;;;5.28;4.66;;;;;;;17.16;90.73;99417.31;1998659;81;20748;-79
2021/09/11 04:09:37;;;;;;;7.10;5.34;;;;;;;17.15;90.97;99419.06;1996078;81;20234;-80
2021/09/11 04:12:39;;;;;;;6.16;4.76;;;;;;;17.15;90.99;99419.06;2000027;81;20172;-80
2021/09/11 04:15:42;;;;;;;6.54;5.05;;;;;;;17.17;91.09;99425.13;1997531;81;20247;-80
2021/09/11 04:18:45;;;;;;;5.28;4.88;;;;;;;17.20;91.03;99429.44;1998082;81;20197;-80
2021/09/11 04:21:47;;;;;;;4.99;4.55;;;;;;;17.24;90.90;99427.59;1997569;81;20184;-80
2021/09/11 04:24:50;;;;;;;4.99;4.57;;;;;;;17.27;90.77;99427.50;1998524;81;20160;-80
2021/09/11 04:27:52;;;;;;;5.64;5.14;;;;;;;17.33;90.33;99424.66;1993211;81;20212;-80
2021/09/11 04:30:55;;;;;;;5.84;4.81;;;;;;;17.34;90.50;99426.38;1998676;81;20179;-81
2021/09/11 04:33:58;;;;;;;5.86;4.59;;;;;;;17.35;90.42;99428.97;1998801;81;20184;-80
2021/09/11 04:37:01;;;;;;;5.81;5.31;;;;;;;17.38;90.27;99428.84;2000457;81;20184;-80
2021/09/11 04:40:04;;;;;;;4.90;4.41;;;;;;;17.39;90.45;99419.22;1998497;81;20263;-80
2021/09/11 04:43:07;;;;;;;5.71;4.69;;;;;;;17.40;90.43;99424.41;1999953;81;20235;-80
2021/09/11 04:46:10;;;;;;;4.95;4.55;;;;;;;17.41;90.35;99418.25;1999453;81;20164;-80
2021/09/11 04:49:12;;;;;;;5.36;4.90;;;;;;;17.43;90.10;99419.09;1997720;81;20208;-80
2021/09/11 04:52:15;;;;;;;5.31;4.84;;;;;;;17.44;89.94;99414.69;1998546;81;20207;-80
2021/09/11 04:55:18;;;;;;;5.55;5.11;;;;;;;17.45;89.84;99414.66;2002612;81;20242;-80
2021/09/11 04:58:20;;;;;;;5.81;5.31;;;;;;;17.45;89.95;99419.91;1999232;81;20269;-80
2021/09/11 05:01:23;;;;;;;5.54;5.05;;;;;;;17.44;90.13;99420.81;2000140;81;20196;-80
2021/09/11 05:04:26;;;;;;;5.95;5.51;;;;;;;17.44;90.15;99415.56;1998784;81;20277;-80
2021/09/11 05:07:29;;;;;;;5.76;5.29;;;;;;;17.44;90.13;99415.56;1998898;81;20247;-80
2021/09/11 05:10:31;;;;;;;6.29;5.78;;;;;;;17.45;90.23;99426.91;1998731;81;20190;-80
2021/09/11 05:13:34;;;;;;;6.04;5.53;;;;;;;17.43;90.42;99423.47;1997657;81;20188;-80
2021/09/11 05:16:37;;;;;;;5.99;5.39;;;;;;;17.43;90.47;99416.47;2000389;81;20198;-80
2021/09/11 05:19:39;;;;;;;5.66;5.21;;;;;;;17.46;90.29;99431.25;1997787;81;20216;-80
2021/09/11 05:22:42;;;;;;;7.75;6.41;;;;;;;17.47;90.21;99428.59;1997772;81;20228;-80
2021/09/11 05:25:45;;;;;;;6.46;5.84;;;;;;;17.50;89.89;99432.88;1996985;81;20343;-80
2021/09/11 05:28:48;;;;;;;7.24;6.15;;;;;;;17.52;90.04;99434.53;1999346;81;20234;-80
2021/09/11 05:31:50;;;;;;;6.78;6.19;;;;;;;17.46;90.15;99429.50;1997744;81;20180;-80
2021/09/11 05:34:53;;;;;;;6.43;5.80;;;;;;;17.44;90.32;99435.69;2003324;81;20184;-80
2021/09/11 05:37:56;;;;;;;6.56;5.54;;;;;;;17.45;90.40;99438.28;2000659;81;20227;-80
2021/09/11 05:40:58;;;;;;;6.31;5.18;;;;;;;17.50;90.29;99432.88;1998565;81;20175;-80
2021/09/11 05:44:02;;;;;;;8.45;5.84;;;;;;;17.51;90.26;99435.44;1999285;81;20183;-80
2021/09/11 05:47:06;;;;;;;7.25;5.72;;;;;;;17.53;90.18;99438.88;1994259;79;28314;-80
2021/09/11 05:50:10;;;;;;;6.72;6.14;;;;;;;17.57;90.14;99441.41;1995695;81;20191;-81
2021/09/11 05:53:13;;;;;;;6.39;5.81;;;;;;;17.57;90.08;99452.75;1998663;81;20226;-80
2021/09/11 05:56:15;;;;;;;6.38;5.85;;;;;;;17.59;90.13;99448.31;1998140;81;20207;-80
2021/09/11 05:59:18;;;;;;;7.10;6.43;;;;;;;17.58;90.12;99453.63;1999644;81;20208;-80
2021/09/11 06:02:21;;;;;;;6.26;5.78;;;;;;;17.57;90.16;99465.88;1999305;79;28566;-81
2021/09/11 06:05:24;;;;;;;7.41;6.09;;;;;;;17.57;90.22;99460.63;2001591;81;20187;-81
2021/09/11 06:08:27;;;;;;;7.40;6.72;;;;;;;17.58;90.27;99464.97;1996964;81;20200;-80
2021/09/11 06:25:45;;;;;;;6.16;5.51;;;;;;;17.71;90.21;99471.59;2000802;81;20219;-81
2021/09/11 06:30:23;;;;;;;7.86;6.18;;;;;;;17.74;90.20;99474.13;1997824;81;20180;-81
2021/09/11 07:14:32;;;;;;;5.64;5.11;;;;;;;18.32;89.29;99474.81;2008595;71;20145;-81
2021/09/11 07:38:53;;;;;;;3.37;3.07;;;;;;;18.92;86.48;99491.13;2013484;71;20232;-82
2021/09/11 08:18:29;;;;;;;2.10;1.92;;;;;;;19.66;83.03;99524.31;1998075;71;20197;-79
2021/09/11 08:53:53;;;;;;;2.17;1.30;;;;;;;21.79;71.97;99543.19;1999503;71;20193;-81
2021/09/11 09:25:39;;;;;;;3.40;1.00;;;;;;;23.52;62.45;99549.34;1993717;71;20145;-83
2021/09/11 11:21:04;;;;;;;2.29;0.74;;;;;;;24.46;51.85;99520.19;1995642;71;20182;-80
2021/09/11 11:24:46;;;;;;;1.67;0.68;;;;;;;24.38;52.00;99518.81;1978647;82;20174;-80
2021/09/11 11:27:48;;;;;;;0.76;0.57;;;;;;;24.26;51.53;99516.88;1976331;82;20194;-79
2021/09/11 11:30:52;;;;;;;2.72;0.60;;;;;;;24.07;52.10;99516.22;1972452;79;22624;-79
2021/09/11 11:33:54;;;;;;;1.42;0.50;;;;;;;24.11;52.59;99517.75;1980601;82;20692;-80
2021/09/11 11:37:02;;;;;;;1.75;0.80;;;;;;;24.35;52.10;99512.81;1981341;82;20980;-79
2021/09/11 11:40:13;;;;;;;1.85;0.60;;;;;;;24.14;52.13;99509.59;1980999;82;20211;-79
2021/09/11 11:43:16;;;;;;;1.01;0.65;;;;;;;23.97;53.00;99501.75;1981868;82;20315;-79
2021/09/11 11:46:18;;;;;;;4.71;0.70;;;;;;;23.86;53.55;99507.66;1979348;79;22744;-79
2021/09/11 11:49:21;;;;;;;2.39;0.60;;;;;;;23.71;53.62;99500.63;1980956;82;20192;-80
2021/09/11 11:52:25;;;;;;;1.76;0.60;;;;;;;23.84;53.88;99493.66;1981659;82;20242;-80
2021/09/11 11:55:33;;;;;;;0.44;0.44;;;;;;;23.68;52.16;99490.16;1981101;82;20631;-79
2021/09/11 11:58:36;;;;;;;1.75;0.56;;;;;;;23.51;53.08;99494.56;1980160;82;20241;-79
2021/09/11 12:01:38;;;;;;;1.30;0.51;;;;;;;23.74;52.37;99490.69;1978898;79;30539;-79
2021/09/11 12:04:43;;;;;;;0.61;0.50;;;;;;;23.96;51.65;99478.84;1981592;82;20212;-80
2021/09/11 12:08:03;;;;;;;1.49;0.45;;;;;;;24.17;51.41;99477.59;1981202;82;20177;-79
2021/09/11 12:11:15;;;;;;;1.51;0.45;;;;;;;24.21;51.45;99484.41;1977609;82;20251;-80
2021/09/11 12:14:18;;;;;;;3.29;0.50;;;;;;;24.54;52.17;99472.78;1982431;82;20277;-79
2021/09/11 12:17:21;;;;;;;2.42;0.49;;;;;;;24.83;49.72;99476.31;1975218;79;21748;-79
2021/09/11 12:20:27;;;;;;;5.10;0.49;;;;;;;24.87;49.39;99483.13;1978549;82;20206;-80
2021/09/11 12:24:12;;;;;;;2.61;0.44;;;;;;;24.81;50.40;99468.44;1984814;82;20193;-80
2021/09/11 12:28:05;;;;;;;4.07;0.50;;;;;;;25.11;49.73;99483.44;1986620;82;20179;-80
2021/09/11 12:31:42;;;;;;;0.93;0.46;;;;;;;25.53;49.54;99480.72;1971269;81;1232665;-80
2021/09/11 12:35:33;;;;;;;0.96;0.47;;;;;;;25.67;48.23;99474.50;1985506;82;20197;-80
2021/09/11 12:39:02;;;;;;;1.70;0.55;;;;;;;25.40;47.32;99481.59;1983081;82;20181;-79
2021/09/11 12:42:38;;;;;;;0.86;0.40;;;;;;;24.69;47.71;99469.19;1984984;82;20288;-80
2021/09/11 12:46:44;;;;;;;0.96;0.30;;;;;;;24.62;48.66;99467.88;1983922;82;20222;-80
2021/09/11 12:51:21;;;;;;;1.02;0.41;;;;;;;25.03;48.46;99470.66;1985642;82;20218;-80
2021/09/11 12:54:44;;;;;;;0.89;0.40;;;;;;;25.28;46.10;99473.44;1980273;82;20217;-81
2021/09/11 12:57:59;;;;;;;1.15;0.50;;;;;;;25.23;46.75;99472.91;1981349;82;20193;-80
2021/09/11 13:01:33;;;;;;;2.55;0.50;;;;;;;24.81;47.21;99478.22;1970764;81;1017199;-80
2021/09/11 13:04:39;;;;;;;0.93;0.47;;;;;;;24.68;48.29;99478.94;1988073;81;20279;-80
2021/09/11 13:07:48;;;;;;;1.66;0.40;;;;;;;25.03;49.44;99472.44;1987941;82;20250;-80
2021/09/11 13:10:53;;;;;;;0.98;0.40;;;;;;;25.16;47.30;99466.28;1986942;81;20583;-80
2021/09/11 13:14:02;;;;;;;0.64;0.40;;;;;;;25.08;46.94;99465.03;1987150;81;20204;-80
2021/09/11 13:17:11;;;;;;;0.94;0.30;;;;;;;25.17;47.34;99462.66;1978036;82;738275;-79
2021/09/11 13:20:28;;;;;;;0.30;0.30;;;;;;;24.94;47.06;99466.72;1983953;82;20345;-80
2021/09/11 13:23:31;;;;;;;1.25;0.40;;;;;;;24.70;47.60;99461.13;1986067;82;20632;-79
2021/09/11 13:26:40;;;;;;;0.86;0.40;;;;;;;24.77;48.84;99461.59;1986579;81;20266;-80
2021/09/11 13:29:44;;;;;;;1.40;0.49;;;;;;;24.83;48.74;99458.56;1986463;81;20664;-80
2021/09/11 13:32:51;;;;;;;2.04;0.50;;;;;;;24.67;49.19;99461.31;1985761;79;38052;-80
2021/09/11 13:36:05;;;;;;;1.54;0.47;;;;;;;24.42;49.56;99458.44;1989420;81;20710;-79
2021/09/11 13:39:19;;;;;;;3.08;0.46;;;;;;;24.30;49.55;99462.69;1988068;81;20220;-80
2021/09/11 13:42:57;;;;;;;1.09;0.38;;;;;;;24.45;49.59;99460.91;1984930;81;20263;-80
2021/09/11 13:46:30;;;;;;;0.68;0.30;;;;;;;24.74;48.20;99447.66;1970641;82;1659978;-80
2021/09/11 13:49:59;;;;;;;0.71;0.40;;;;;;;24.94;47.01;99460.53;1987799;81;20192;-80
2021/09/11 15:16:01;;;;;;;0.89;0.30;;;;;;;24.49;41.76;99481.00;1991723;81;20390;-79
2021/09/11 15:20:10;;;;;;;0.40;0.20;;;;;;;24.54;42.49;99476.28;1988855;81;20188;-81
2021/09/11 15:24:16;;;;;;;1.70;0.21;;;;;;;24.40;41.54;99478.91;1990932;81;20291;-80
2021/09/11 15:28:48;;;;;;;0.91;0.30;;;;;;;24.46;42.97;99475.91;1993451;81;20280;-80
2021/09/11 15:41:01;;;;;;;0.30;0.21;;;;;;;24.70;43.69;99468.25;2005753;71;20205;-80
2021/09/11 15:45:11;;;;;;;2.14;0.28;;;;;;;24.74;42.25;99461.78;1986068;82;20200;-81
2021/09/11 15:48:27;;;;;;;1.30;0.20;;;;;;;24.78;42.15;99465.97;1977875;82;20250;-80
2021/09/11 15:51:32;;;;;;;1.46;0.21;;;;;;;24.75;41.33;99470.59;1975460;82;20929;-80
2021/09/11 15:54:53;;;;;;;0.20;0.20;;;;;;;24.47;41.36;99460.81;1976347;82;20209;-80
2021/09/11 15:57:57;;;;;;;1.57;0.18;;;;;;;24.53;41.79;99461.28;1971206;82;20181;-80
2021/09/11 16:01:42;;;;;;;0.52;0.30;;;;;;;24.54;42.56;99464.81;1980392;82;20194;-81
2021/09/11 16:05:30;;;;;;;0.50;0.20;;;;;;;24.60;41.54;99461.78;1979662;82;20212;-81
2021/09/11 16:09:50;;;;;;;1.05;0.30;;;;;;;24.50;42.46;99463.28;1980112;82;20202;-79
2021/09/11 16:13:44;;;;;;;0.88;0.20;;;;;;;24.54;41.90;99462.16;1980842;82;20214;-79
2021/09/11 16:17:51;;;;;;;0.95;0.28;;;;;;;24.56;41.06;99462.91;1965502;81;2322766;-79
2021/09/11 16:27:03;;;;;;;1.19;0.30;;;;;;;24.62;42.92;99475.81;1975342;82;20232;-79
2021/09/11 16:31:21;;;;;;;1.36;0.30;;;;;;;24.90;42.17;99467.84;1976754;82;20213;-79
2021/09/11 16:35:37;;;;;;;0.34;0.30;;;;;;;25.02;41.69;99468.94;1978152;82;20331;-81
2021/09/11 16:39:38;;;;;;;1.67;0.65;;;;;;;24.64;42.39;99472.13;1978214;82;20313;-81
2021/09/11 16:43:59;;;;;;;0.31;0.30;;;;;;;23.95;44.51;99477.13;1977198;82;20187;-82
2021/09/11 16:48:36;;;;;;;1.40;0.40;;;;;;;23.52;46.06;99475.09;1557145;82;37862661;-82
2021/09/11 17:10:24;;;;;;;2.22;0.40;;;;;;;20.98;57.84;99478.25;1983857;82;20315;-81
2021/09/11 17:13:29;;;;;;;4.66;0.70;;;;;;;20.57;60.07;99481.91;1984809;82;20285;-82
2021/09/11 17:17:16;;;;;;;1.81;0.49;;;;;;;20.33;61.27;99478.50;1986715;82;20230;-81
2021/09/11 17:20:42;;;;;;;1.88;0.38;;;;;;;20.08;62.18;99478.69;1981475;82;20915;-80
2021/09/11 17:24:12;;;;;;;1.46;0.40;;;;;;;19.87;63.21;99478.66;1985610;82;20199;-81
2021/09/11 17:28:01;;;;;;;;;;;;;;;19.60;63.69;99483.25;1985638;82;20238;-81
2021/09/11 17:35:39;;;;;;;2.89;0.44;;;;;;;19.17;65.31;99485.78;1986781;82;20197;-81
2021/09/11 17:39:04;;;;;;;7.18;0.60;;;;;;;18.89;65.84;99481.59;1985616;82;20200;-81
2021/09/11 18:08:48;;;;;;;1.23;0.60;;;;;;;17.38;70.22;99494.47;2029858;71;20061;-82
2021/09/11 18:36:04;;;;;;;2.40;0.70;;;;;;;16.57;72.88;99516.91;1981824;82;20211;-81
2021/09/11 18:40:19;;;;;;;1.89;0.69;;;;;;;16.53;73.02;99525.75;1983244;82;20231;-81
2021/09/11 18:43:37;;;;;;;4.15;0.80;;;;;;;16.45;73.28;99530.31;1981962;82;20336;-81
2021/09/11 18:47:02;;;;;;;2.06;0.80;;;;;;;16.24;73.63;99532.59;1983676;79;58686;-80
2021/09/11 18:50:13;;;;;;;7.93;1.88;;;;;;;16.11;73.92;99533.78;1987271;82;20314;-81
2021/09/11 18:53:23;;;;;;;2.22;0.80;;;;;;;16.02;74.21;99548.00;1986621;82;20241;-81
2021/09/11 18:56:27;;;;;;;1.76;0.66;;;;;;;15.97;74.66;99546.34;1983664;82;20217;-81
2021/09/11 18:59:56;;;;;;;2.72;0.70;;;;;;;15.92;74.99;99550.84;1984096;82;20239;-82
2021/09/11 19:03:05;;;;;;;1.98;0.88;;;;;;;15.86;75.21;99549.25;1999492;79;54709;-81
2021/09/11 19:06:10;;;;;;;1.26;0.70;;;;;;;15.85;75.22;99557.16;2003241;81;20158;-80
2021/09/11 19:09:28;;;;;;;1.94;0.69;;;;;;;15.79;75.27;99554.66;2002767;81;20152;-81
2021/09/11 19:12:41;;;;;;;0.81;0.70;;;;;;;15.69;75.35;99556.63;2003313;81;20230;-81
2021/09/11 19:16:03;;;;;;;3.72;0.80;;;;;;;15.63;75.64;99562.00;2000250;81;20136;-81
2021/09/11 19:19:30;;;;;;;3.83;0.82;;;;;;;15.50;75.80;99564.00;2005101;81;20317;-81
2021/09/11 19:22:54;;;;;;;0.80;0.55;;;;;;;15.43;76.01;99565.00;2003905;81;20170;-82
2021/09/11 19:25:58;;;;;;;3.71;0.90;;;;;;;15.35;76.45;99566.94;2001088;81;20176;-81
2021/09/11 19:29:08;;;;;;;0.73;0.70;;;;;;;15.25;76.85;99563.63;2005805;81;20295;-81
2021/09/11 19:32:11;;;;;;;0.84;0.70;;;;;;;15.21;77.12;99550.66;2003744;78;63328;-81
2021/09/11 19:35:20;;;;;;;2.53;0.70;;;;;;;15.14;77.34;99557.78;2007554;81;20149;-81
2021/09/11 19:38:46;;;;;;;1.88;0.80;;;;;;;15.07;77.64;99567.47;2009179;81;20179;-81
2021/09/11 19:42:08;;;;;;;1.13;0.80;;;;;;;15.03;77.60;99575.41;2007689;81;20226;-81
2021/09/11 19:45:38;;;;;;;2.53;0.80;;;;;;;14.98;77.60;99564.19;2005020;81;20248;-81
2021/09/11 19:49:04;;;;;;;3.35;0.95;;;;;;;14.94;77.79;99573.84;2007731;81;20207;-81
2021/09/11 19:52:12;;;;;;;0.86;0.70;;;;;;;14.87;77.88;99571.38;2009203;81;20305;-81
2021/09/11 20:49:52;;;;;;;1.35;0.79;;;;;;;13.89;81.22;99584.31;1997003;81;20148;-81
2021/09/11 20:53:02;;;;;;;0.79;0.76;;;;;;;13.77;81.68;99594.91;1997535;81;20172;-81
2021/09/11 20:56:12;;;;;;;1.69;0.84;;;;;;;13.69;81.88;99593.31;1996408;81;20164;-82
2021/09/11 20:59:14;;;;;;;1.41;0.80;;;;;;;13.70;82.06;99595.91;2000827;81;20216;-80
2021/09/11 21:02:24;;;;;;;1.08;0.90;;;;;;;13.68;82.20;99596.81;1998474;79;22507;-81
2021/09/11 21:05:34;;;;;;;2.47;0.88;;;;;;;13.66;82.22;99596.84;1998110;81;20145;-81
2021/09/11 21:08:36;;;;;;;1.01;0.91;;;;;;;13.61;82.18;99591.66;1998485;82;20173;-81
2021/09/11 21:11:46;;;;;;;1.17;0.91;;;;;;;13.60;82.31;99595.16;1998833;81;20152;-81
2021/09/11 21:14:48;;;;;;;1.04;0.98;;;;;;;13.58;82.27;99591.69;2003068;81;20169;-81
2021/09/11 21:17:58;;;;;;;0.99;0.90;;;;;;;13.55;82.49;99596.97;1999128;79;40793;-81
2021/09/11 21:21:06;;;;;;;;;;;;;;;13.50;82.53;99593.56;2000537;82;20228;-81
2021/09/11 21:24:16;;;;;;;1.41;0.89;;;;;;;13.45;82.75;99591.88;1998827;81;20052;-81
2021/09/11 21:27:18;;;;;;;1.98;0.99;;;;;;;13.40;82.92;99598.91;1998297;81;20184;-81
2021/09/11 21:30:28;;;;;;;3.71;1.16;;;;;;;13.33;83.13;99595.53;1993660;82;20413;-81
2021/09/11 21:33:30;;;;;;;3.95;0.99;;;;;;;13.30;83.32;99598.16;1995670;81;20141;-81
2021/09/11 21:36:40;;;;;;;1.35;0.99;;;;;;;13.25;83.48;99600.81;2000575;82;20228;-82
2021/09/11 21:39:49;;;;;;;;;;;;;;;13.20;83.70;99597.41;1998830;82;20228;-81
2021/09/11 21:42:51;;;;;;;1.44;1.00;;;;;;;13.17;83.92;99604.38;2000486;81;20009;-81
2021/09/11 21:46:00;;;;;;;1.69;0.93;;;;;;;13.14;84.02;99610.50;1997170;82;20129;-81
2021/09/11 21:49:03;;;;;;;1.36;0.91;;;;;;;13.12;84.00;99601.81;2002639;81;20239;-81
2021/09/11 21:52:14;;;;;;;1.60;1.16;;;;;;;13.06;84.00;99601.00;1998609;81;20149;-81
2021/09/11 21:55:16;;;;;;;1.49;0.99;;;;;;;13.01;84.25;99596.72;1998274;81;20173;-82
2021/09/11 21:58:26;;;;;;;1.08;1.05;;;;;;;12.99;84.39;99597.63;2000311;81;20137;-80
2021/09/11 22:01:28;;;;;;;3.16;1.16;;;;;;;13.00;84.36;99600.22;1993968;81;20156;-81
2021/09/11 22:04:38;;;;;;;1.98;0.90;;;;;;;13.02;84.41;99600.19;1996250;81;20376;-81
2021/09/11 22:07:40;;;;;;;3.38;1.06;;;;;;;12.98;84.51;99598.50;1996106;81;20180;-82
2021/09/11 22:10:50;;;;;;;1.27;1.17;;;;;;;12.89;84.45;99599.44;1994971;81;20121;-82
2021/09/11 22:13:59;;;;;;;;;;;;;;;12.84;84.63;99597.78;2002821;81;20212;-81
2021/09/11 22:17:01;;;;;;;1.69;1.04;;;;;;;12.82;84.95;99605.63;1996225;81;20158;-81
2021/09/11 22:20:12;;;;;;;2.74;1.06;;;;;;;12.81;84.85;99595.22;2001870;82;20145;-82
2021/09/11 22:23:21;;;;;;;1.80;1.08;;;;;;;12.78;84.79;99601.31;1992432;82;20172;-82
2021/09/11 22:26:30;;;;;;;1.21;1.11;;;;;;;12.69;84.73;99604.84;1996459;81;20161;-81
2021/09/11 22:29:32;;;;;;;5.65;1.40;;;;;;;12.64;84.87;99608.41;1996162;81;20199;-81
2021/09/11 22:32:42;;;;;;;3.49;1.14;;;;;;;12.59;85.05;99603.22;1991738;79;39001;-81
2021/09/11 22:35:51;;;;;;;1.23;1.16;;;;;;;12.58;85.28;99613.66;1996897;82;20223;-80
2021/09/11 22:39:01;;;;;;;2.25;1.20;;;;;;;12.58;85.39;99608.47;1994006;82;20176;-80
2021/09/11 22:42:04;;;;;;;2.55;1.40;;;;;;;12.53;85.63;99612.81;1997417;82;20156;-81
2021/09/11 22:45:13;;;;;;;1.48;1.20;;;;;;;12.51;85.56;99612.84;1995929;82;20137;-80
2021/09/11 22:48:22;;;;;;;1.35;1.25;;;;;;;12.53;85.21;99616.28;1994610;79;37715;-81
2021/09/11 22:51:32;;;;;;;1.27;1.17;;;;;;;12.53;84.94;99612.81;1993237;82;20219;-81
2021/09/11 22:54:41;;;;;;;1.30;1.19;;;;;;;12.49;84.93;99614.59;1993168;82;20275;-81
2021/09/11 22:57:50;;;;;;;2.55;1.39;;;;;;;12.50;84.78;99615.47;1994192;82;20259;-81
2021/09/11 23:00:59;;;;;;;1.39;0.96;;;;;;;12.45;84.72;99615.50;1997478;79;29104;-81
2021/09/11 23:04:08;;;;;;;1.66;1.34;;;;;;;12.34;84.97;99615.59;2000236;81;20176;-81
2021/09/11 23:07:18;;;;;;;2.00;1.10;;;;;;;12.30;85.33;99616.50;2003138;81;20190;-80
2021/09/11 23:10:21;;;;;;;2.13;1.20;;;;;;;12.32;85.56;99611.28;2001609;81;20186;-80
2021/09/11 23:13:30;;;;;;;2.75;1.19;;;;;;;12.28;85.48;99610.44;2002934;81;20215;-81
2021/09/11 23:16:39;;;;;;;1.14;1.04;;;;;;;12.25;85.65;99607.88;2002849;81;20185;-81
2021/09/11 23:19:48;;;;;;;1.94;1.20;;;;;;;12.24;85.70;99602.66;1999248;81;20217;-81
2021/09/11 23:22:57;;;;;;;1.69;1.05;;;;;;;12.25;85.73;99604.41;2001110;81;20152;-81
2021/09/11 23:25:59;;;;;;;1.49;1.08;;;;;;;12.21;85.54;99594.84;2001256;81;20183;-81
2021/09/11 23:29:09;;;;;;;1.59;1.23;;;;;;;12.18;85.03;99605.28;2000246;81;20164;-81
2021/09/11 23:35:42;;;;;;;1.44;1.34;;;;;;;12.16;84.92;99609.66;2031366;71;20765;-82
2021/09/11 23:38:55;;;;;;;1.39;1.29;;;;;;;12.13;84.82;99605.34;1991550;82;20168;-81
2021/09/11 23:42:17;;;;;;;2.38;1.83;;;;;;;12.05;85.09;99602.81;1994190;82;20688;-80